createdAt,value
2023-01-18T00:01:52.140Z,100.00
2023-01-18T00:04:37.712Z,100.00
2023-01-18T00:07:23.324Z,100.00
2023-01-18T00:10:09.340Z,100.00
2023-01-18T00:12:55.070Z,100.00
2023-01-18T00:15:40.882Z,100.00
2023-01-18T00:18:26.165Z,100.00
2023-01-18T00:21:12.336Z,100.00
2023-01-18T00:23:58.114Z,100.00
2023-01-18T00:26:43.970Z,100.00
2023-01-18T00:29:30.339Z,100.00
2023-01-18T00:32:16.859Z,100.00
2023-01-18T00:35:07.232Z,100.00
2023-01-18T00:37:54.114Z,100.00
2023-01-18T00:40:39.540Z,100.00
2023-01-18T00:43:41.415Z,100.00
2023-01-18T00:46:30.023Z,100.00
2023-01-18T00:49:15.537Z,100.00
2023-01-18T00:52:01.185Z,100.00
2023-01-18T00:54:46.910Z,100.00
2023-01-18T00:57:32.455Z,100.00
2023-01-18T01:00:19.613Z,100.00
2023-01-18T01:03:04.870Z,100.00
2023-01-18T01:06:08.854Z,100.00
2023-01-18T01:08:54.548Z,100.00
2023-01-18T01:11:40.184Z,100.00
2023-01-18T01:14:43.894Z,100.00
2023-01-18T01:17:52.957Z,100.00
2023-01-18T01:20:57.002Z,100.00
2023-01-18T01:24:01.095Z,100.00
2023-01-18T01:26:46.732Z,100.00
2023-01-18T01:29:32.486Z,100.00
2023-01-18T01:32:17.801Z,100.00
2023-01-18T01:35:03.362Z,100.00
2023-01-18T01:37:48.762Z,100.00
2023-01-18T01:40:34.399Z,100.00
2023-01-18T01:43:37.136Z,100.00
2023-01-18T01:46:32.946Z,100.00
2023-01-18T01:49:32.035Z,100.00
2023-01-18T01:52:23.612Z,100.00
2023-01-18T01:55:20.804Z,100.00
2023-01-18T01:58:28.383Z,100.00
2023-01-18T02:01:14.277Z,100.00
2023-01-18T02:04:02.113Z,100.00
2023-01-18T02:06:47.780Z,100.00
2023-01-18T02:09:33.614Z,100.00
2023-01-18T02:12:19.632Z,100.00
2023-01-18T02:15:05.915Z,100.00
2023-01-18T02:18:06.866Z,100.00
2023-01-18T02:21:18.532Z,100.00
2023-01-18T02:24:31.991Z,100.00
2023-01-18T02:27:35.458Z,100.00
2023-01-18T02:30:30.390Z,100.00
2023-01-18T02:33:18.377Z,100.00
2023-01-18T02:36:05.528Z,100.00
2023-01-18T02:38:55.859Z,100.00
2023-01-18T02:42:06.872Z,100.00
2023-01-18T02:45:11.566Z,100.00
2023-01-18T02:47:57.441Z,100.00
2023-01-18T02:50:42.826Z,100.00
2023-01-18T02:53:30.144Z,100.00
2023-01-18T02:56:27.715Z,100.00
2023-01-18T02:59:24.797Z,100.00
2023-01-18T03:02:16.242Z,100.00
2023-01-18T03:05:03.525Z,100.00
2023-01-18T03:08:11.001Z,100.00
2023-01-18T03:11:02.895Z,100.00
2023-01-18T03:13:59.601Z,100.00
2023-01-18T03:17:00.040Z,100.00
2023-01-18T03:20:03.680Z,100.00
2023-01-18T03:23:12.274Z,100.00
2023-01-18T03:26:00.224Z,100.00
2023-01-18T03:29:10.691Z,100.00
2023-01-18T03:32:26.336Z,100.00
2023-01-18T03:35:16.202Z,100.00
2023-01-18T03:38:01.880Z,100.00
2023-01-18T03:40:47.720Z,100.00
2023-01-18T03:43:37.816Z,100.00
2023-01-18T03:46:24.792Z,100.00
2023-01-18T03:49:11.162Z,100.00
2023-01-18T03:52:02.362Z,100.00
2023-01-18T03:55:12.426Z,100.00
2023-01-18T03:58:03.221Z,100.00
2023-01-18T04:00:50.056Z,100.00
2023-01-18T04:03:35.313Z,100.00
2023-01-18T04:06:22.865Z,100.00
2023-01-18T04:09:08.619Z,100.00
2023-01-18T04:11:54.084Z,100.00
2023-01-18T04:14:39.352Z,100.00
2023-01-18T04:17:25.113Z,100.00
2023-01-18T04:20:11.032Z,100.00
2023-01-18T04:22:56.765Z,100.00
2023-01-18T04:25:49.879Z,100.00
2023-01-18T04:28:35.610Z,100.00
2023-01-18T04:31:22.358Z,100.00
2023-01-18T04:34:08.093Z,100.00
2023-01-18T04:36:53.581Z,100.00
2023-01-18T04:39:39.088Z,100.00
2023-01-18T04:42:25.706Z,100.00
2023-01-18T04:45:13.980Z,100.00
2023-01-18T04:47:59.585Z,100.00
2023-01-18T04:50:46.452Z,100.00
2023-01-18T04:53:34.523Z,100.00
2023-01-18T04:56:19.849Z,100.00
2023-01-18T04:59:06.235Z,100.00
2023-01-18T05:01:51.469Z,100.00
2023-01-18T05:04:36.701Z,100.00
2023-01-18T05:07:24.613Z,100.00
2023-01-18T05:10:10.423Z,100.00
2023-01-18T05:12:56.562Z,100.00
2023-01-18T05:15:42.527Z,100.00
2023-01-18T05:18:28.767Z,100.00
2023-01-18T05:21:15.085Z,100.00
2023-01-18T05:24:00.355Z,100.00
2023-01-18T05:26:46.032Z,100.00
2023-01-18T05:29:31.385Z,100.00
2023-01-18T05:32:17.255Z,100.00
2023-01-18T05:35:04.447Z,100.00
2023-01-18T05:37:49.647Z,100.00
2023-01-18T05:40:34.968Z,100.00
2023-01-18T05:43:27.057Z,100.00
2023-01-18T05:46:12.508Z,100.00
2023-01-18T05:48:58.820Z,100.00
2023-01-18T05:51:44.332Z,100.00
2023-01-18T05:54:29.613Z,100.00
2023-01-18T05:57:15.118Z,100.00
2023-01-18T06:00:02.223Z,100.00
2023-01-18T06:02:47.721Z,100.00
2023-01-18T06:05:33.476Z,100.00
2023-01-18T06:08:19.520Z,100.00
2023-01-18T06:11:06.368Z,100.00
2023-01-18T06:13:52.359Z,100.00
2023-01-18T06:16:38.015Z,100.00
2023-01-18T06:19:23.639Z,100.00
2023-01-18T06:22:09.116Z,100.00
2023-01-18T06:24:55.119Z,100.00
2023-01-18T06:27:40.940Z,100.00
2023-01-18T06:30:26.821Z,100.00
2023-01-18T06:33:12.165Z,100.00
2023-01-18T06:35:57.827Z,100.00
2023-01-18T06:38:43.208Z,100.00
2023-01-18T06:41:29.261Z,100.00
2023-01-18T06:44:14.890Z,100.00
2023-01-18T06:47:00.193Z,100.00
2023-01-18T06:49:47.922Z,100.00
2023-01-18T06:52:33.458Z,100.00
2023-01-18T06:55:19.880Z,100.00
2023-01-18T06:58:05.132Z,100.00
2023-01-18T07:00:51.744Z,100.00
2023-01-18T07:03:38.827Z,100.00
2023-01-18T07:06:24.257Z,100.00
2023-01-18T07:09:10.431Z,100.00
2023-01-18T07:11:56.050Z,100.00
2023-01-18T07:14:41.317Z,100.00
2023-01-18T07:17:26.904Z,100.00
2023-01-18T07:20:15.697Z,100.00
2023-01-18T07:23:01.272Z,100.00
2023-01-18T07:25:46.787Z,100.00
2023-01-18T07:28:34.122Z,100.00
2023-01-18T07:31:20.140Z,100.00
2023-01-18T07:34:06.201Z,100.00
2023-01-18T07:36:51.859Z,100.00
2023-01-18T07:39:37.037Z,100.00
2023-01-18T07:42:22.805Z,100.00
2023-01-18T07:45:09.498Z,100.00
2023-01-18T07:47:54.920Z,100.00
2023-01-18T07:50:40.817Z,100.00
2023-01-18T07:53:30.459Z,100.00
2023-01-18T07:56:17.563Z,100.00
2023-01-18T07:59:03.081Z,100.00
2023-01-18T08:01:48.422Z,100.00
2023-01-18T08:04:34.130Z,100.00
2023-01-18T08:07:19.892Z,100.00
2023-01-18T08:10:05.629Z,100.00
2023-01-18T08:12:51.703Z,100.00
2023-01-18T08:15:38.594Z,100.00
2023-01-18T08:18:23.959Z,100.00
2023-01-18T08:21:11.176Z,100.00
2023-01-18T08:23:56.436Z,100.00
2023-01-18T08:26:41.739Z,100.00
2023-01-18T08:29:27.462Z,100.00
2023-01-18T08:32:13.062Z,100.00
2023-01-18T08:34:58.919Z,100.00
2023-01-18T08:37:44.486Z,100.00
2023-01-18T08:40:30.413Z,100.00
2023-01-18T08:43:15.836Z,100.00
2023-01-18T08:46:01.336Z,100.00
2023-01-18T08:48:55.405Z,100.00
2023-01-18T08:51:41.163Z,100.00
2023-01-18T08:54:26.652Z,100.00
2023-01-18T08:57:11.977Z,100.00
2023-01-18T08:59:57.724Z,100.00
2023-01-18T09:02:43.356Z,100.00
2023-01-18T09:05:28.870Z,100.00
2023-01-18T09:08:14.236Z,100.00
2023-01-18T09:11:04.610Z,100.00
2023-01-18T09:14:00.769Z,100.00
2023-01-18T09:16:46.991Z,100.00
2023-01-18T09:19:32.854Z,100.00
2023-01-18T09:22:18.677Z,100.00
2023-01-18T09:25:05.690Z,100.00
2023-01-18T09:27:51.574Z,100.00
2023-01-18T09:30:36.888Z,100.00
2023-01-18T09:33:22.399Z,100.00
2023-01-18T09:36:10.168Z,100.00
2023-01-18T09:38:55.744Z,100.00
2023-01-18T09:41:49.479Z,98.09
2023-01-18T09:44:40.658Z,98.68
2023-01-18T09:47:34.277Z,97.67
2023-01-18T09:50:21.251Z,93.11
2023-01-18T09:53:38.289Z,91.36
2023-01-18T09:56:38.519Z,87.51
2023-01-18T09:59:37.246Z,91.98
2023-01-18T10:02:39.078Z,91.07
2023-01-18T10:05:29.229Z,84.27
2023-01-18T10:08:24.356Z,80.93
2023-01-18T10:11:14.788Z,75.16
2023-01-18T10:14:11.164Z,69.73
2023-01-18T10:17:00.482Z,69.69
2023-01-18T10:19:45.731Z,68.25
2023-01-18T10:22:45.246Z,65.56
2023-01-18T10:25:35.864Z,63.35
2023-01-18T10:28:56.812Z,58.81
2023-01-18T10:32:03.087Z,56.66
2023-01-18T10:34:51.620Z,56.13
2023-01-18T10:37:45.212Z,55.85
2023-01-18T10:40:30.570Z,54.34
2023-01-18T10:43:21.212Z,54.67
2023-01-18T10:46:13.871Z,56.48
2023-01-18T10:48:59.314Z,61.37
2023-01-18T10:51:46.333Z,62.56
2023-01-18T10:54:31.624Z,61.63
2023-01-18T10:57:25.515Z,65.69
2023-01-18T11:00:34.742Z,64.62
2023-01-18T11:03:20.254Z,64.28
2023-01-18T11:06:07.020Z,62.70
2023-01-18T11:08:53.593Z,60.00
2023-01-18T11:11:57.272Z,56.00
2023-01-18T11:14:42.790Z,55.25
2023-01-18T11:17:30.815Z,56.96
2023-01-18T11:20:23.231Z,56.58
2023-01-18T11:23:17.486Z,54.51
2023-01-18T11:26:17.251Z,55.43
2023-01-18T11:29:06.564Z,55.32
2023-01-18T11:31:52.884Z,56.63
2023-01-18T11:34:43.671Z,59.31
2023-01-18T11:37:34.318Z,59.09
2023-01-18T11:40:20.433Z,59.45
2023-01-18T11:43:19.814Z,60.63
2023-01-18T11:46:36.220Z,59.14
2023-01-18T11:49:45.399Z,57.17
2023-01-18T11:52:46.723Z,57.76
2023-01-18T11:55:46.531Z,58.02
2023-01-18T11:58:34.135Z,58.71
2023-01-18T12:01:32.908Z,60.77
2023-01-18T12:05:02.086Z,62.83
2023-01-18T12:08:10.470Z,63.22
2023-01-18T12:11:18.572Z,64.76
2023-01-18T12:14:24.712Z,67.34
2023-01-18T12:17:27.204Z,64.46
2023-01-18T12:20:27.854Z,62.46
2023-01-18T12:23:27.624Z,61.63
2023-01-18T12:26:50.900Z,61.38
2023-01-18T12:30:14.186Z,59.84
2023-01-18T12:33:08.000Z,60.73
2023-01-18T12:36:02.065Z,59.28
2023-01-18T12:38:54.110Z,59.28
2023-01-18T12:41:45.237Z,57.14
2023-01-18T12:44:41.372Z,58.09
2023-01-18T12:47:35.344Z,57.55
2023-01-18T12:50:34.529Z,59.79
2023-01-18T12:53:28.637Z,59.38
2023-01-18T12:56:27.672Z,63.91
2023-01-18T12:59:20.559Z,64.07
2023-01-18T13:02:23.913Z,64.39
2023-01-18T13:05:24.313Z,65.00
2023-01-18T13:08:21.161Z,65.67
2023-01-18T13:11:17.314Z,65.80
2023-01-18T13:14:24.104Z,64.73
2023-01-18T13:17:18.769Z,63.79
2023-01-18T13:20:12.738Z,63.38
2023-01-18T13:23:14.789Z,63.55
2023-01-18T13:26:21.533Z,66.04
2023-01-18T13:29:10.037Z,66.33
2023-01-18T13:31:56.980Z,68.33
2023-01-18T13:34:48.625Z,69.05
2023-01-18T13:37:41.833Z,71.29
2023-01-18T13:40:36.939Z,71.21
2023-01-18T13:43:54.050Z,69.95
2023-01-18T13:46:42.379Z,70.79
2023-01-18T13:49:38.262Z,70.73
2023-01-18T13:52:42.183Z,71.82
2023-01-18T13:55:31.823Z,71.75
2023-01-18T13:58:24.087Z,73.27
2023-01-18T14:01:22.730Z,72.78
2023-01-18T14:04:30.639Z,73.56
2023-01-18T14:07:22.549Z,73.51
2023-01-18T14:10:25.388Z,74.39
2023-01-18T14:13:17.526Z,76.93
2023-01-18T14:16:02.899Z,78.29
2023-01-18T14:18:55.788Z,78.21
2023-01-18T14:21:47.188Z,78.11
2023-01-18T14:24:58.381Z,77.87
2023-01-18T14:27:50.034Z,76.72
2023-01-18T14:30:38.590Z,79.75
2023-01-18T14:33:32.685Z,80.65
2023-01-18T14:36:27.091Z,81.72
2023-01-18T14:39:16.164Z,81.95
2023-01-18T14:42:05.732Z,83.05
2023-01-18T14:44:58.780Z,83.11
2023-01-18T14:47:44.811Z,82.01
2023-01-18T14:50:36.073Z,83.26
2023-01-18T14:53:25.377Z,85.04
2023-01-18T14:56:13.730Z,85.96
2023-01-18T14:59:17.866Z,86.61
2023-01-18T15:02:16.677Z,87.94
2023-01-18T15:05:13.663Z,89.25
2023-01-18T15:07:59.469Z,90.23
2023-01-18T15:10:45.944Z,89.80
2023-01-18T15:13:32.684Z,90.16
2023-01-18T15:16:21.794Z,91.09
2023-01-18T15:19:14.563Z,92.16
2023-01-18T15:22:02.154Z,93.53
2023-01-18T15:24:47.642Z,95.08
2023-01-18T15:27:33.414Z,95.85
2023-01-18T15:30:22.517Z,97.15
2023-01-18T15:33:09.820Z,97.75
2023-01-18T15:36:01.109Z,97.83
2023-01-18T15:38:47.095Z,98.64
2023-01-18T15:41:33.032Z,99.14
2023-01-18T15:44:51.384Z,100.00
2023-01-18T15:47:38.188Z,100.00
2023-01-18T15:50:30.836Z,100.00
2023-01-18T15:53:35.380Z,100.00
2023-01-18T15:56:26.246Z,100.00
2023-01-18T15:59:11.874Z,100.00
2023-01-18T16:02:09.638Z,100.00
2023-01-18T16:05:22.197Z,100.00
2023-01-18T16:08:22.640Z,100.00
2023-01-18T16:11:26.627Z,100.00
2023-01-18T16:14:31.207Z,100.00
2023-01-18T16:17:20.964Z,100.00
2023-01-18T16:20:16.347Z,100.00
2023-01-18T16:23:08.935Z,100.00
2023-01-18T16:26:01.959Z,100.00
2023-01-18T16:28:47.582Z,100.00
2023-01-18T16:31:34.421Z,100.00
2023-01-18T16:34:25.451Z,100.00
2023-01-18T16:37:10.804Z,100.00
2023-01-18T16:39:56.324Z,100.00
2023-01-18T16:43:03.296Z,100.00
2023-01-18T16:45:51.539Z,100.00
2023-01-18T16:48:37.551Z,100.00
2023-01-18T16:51:24.375Z,100.00
2023-01-18T16:54:09.793Z,100.00
2023-01-18T16:56:55.148Z,100.00
2023-01-18T16:59:40.607Z,100.00
2023-01-18T17:02:25.943Z,100.00
2023-01-18T17:05:12.896Z,100.00
2023-01-18T17:08:00.195Z,100.00
2023-01-18T17:10:48.013Z,100.00
2023-01-18T17:13:33.360Z,100.00
2023-01-18T17:16:19.770Z,100.00
2023-01-18T17:19:05.647Z,100.00
2023-01-18T17:21:51.591Z,100.00
2023-01-18T17:24:37.071Z,100.00
2023-01-18T17:27:22.294Z,100.00
2023-01-18T17:30:09.049Z,100.00
2023-01-18T17:32:54.807Z,100.00
2023-01-18T17:35:40.025Z,100.00
2023-01-18T17:38:29.593Z,100.00
2023-01-18T17:41:26.780Z,100.00
2023-01-18T17:44:12.655Z,100.00
2023-01-18T17:46:58.165Z,100.00
2023-01-18T17:49:43.577Z,100.00
2023-01-18T17:52:29.244Z,100.00
2023-01-18T17:55:15.268Z,100.00
2023-01-18T17:58:00.867Z,100.00
2023-01-18T18:00:46.610Z,100.00
2023-01-18T18:03:32.357Z,100.00
2023-01-18T18:06:30.327Z,100.00
2023-01-18T18:09:16.692Z,100.00
2023-01-18T18:12:02.311Z,100.00
2023-01-18T18:14:51.243Z,100.00
2023-01-18T18:17:36.873Z,100.00
2023-01-18T18:20:22.950Z,100.00
2023-01-18T18:23:10.126Z,100.00
2023-01-18T18:25:56.213Z,100.00
2023-01-18T18:28:41.912Z,100.00
2023-01-18T18:31:27.700Z,100.00
2023-01-18T18:34:13.590Z,100.00
2023-01-18T18:36:58.979Z,100.00
2023-01-18T18:39:44.629Z,100.00
2023-01-18T18:42:30.031Z,100.00
2023-01-18T18:45:15.583Z,100.00
2023-01-18T18:48:01.364Z,100.00
2023-01-18T18:50:47.333Z,100.00
2023-01-18T18:53:38.643Z,100.00
2023-01-18T18:56:25.882Z,100.00
2023-01-18T18:59:11.622Z,100.00
2023-01-18T19:01:57.298Z,100.00
2023-01-18T19:04:42.738Z,100.00
2023-01-18T19:07:28.548Z,100.00
2023-01-18T19:10:14.700Z,100.00
2023-01-18T19:13:02.055Z,100.00
2023-01-18T19:15:49.373Z,100.00
2023-01-18T19:18:34.975Z,100.00
2023-01-18T19:21:20.675Z,100.00
2023-01-18T19:24:06.147Z,100.00
2023-01-18T19:26:51.615Z,100.00
2023-01-18T19:29:38.417Z,100.00
2023-01-18T19:32:24.359Z,100.00
2023-01-18T19:35:10.116Z,100.00
2023-01-18T19:37:55.497Z,100.00
2023-01-18T19:40:41.068Z,100.00
2023-01-18T19:43:26.421Z,100.00
2023-01-18T19:46:13.379Z,100.00
2023-01-18T19:48:59.425Z,100.00
2023-01-18T19:51:45.618Z,100.00
2023-01-18T19:54:30.973Z,100.00
2023-01-18T19:57:16.632Z,100.00
2023-01-18T20:00:07.000Z,100.00
2023-01-18T20:02:53.477Z,100.00
2023-01-18T20:05:42.631Z,100.00
2023-01-18T20:08:28.032Z,100.00
2023-01-18T20:11:14.812Z,100.00
2023-01-18T20:14:00.345Z,100.00
2023-01-18T20:16:46.609Z,100.00
2023-01-18T20:19:32.239Z,100.00
2023-01-18T20:22:18.231Z,100.00
2023-01-18T20:25:04.304Z,100.00
2023-01-18T20:27:49.502Z,100.00
2023-01-18T20:30:34.939Z,100.00
2023-01-18T20:33:20.390Z,100.00
2023-01-18T20:36:07.461Z,100.00
2023-01-18T20:38:53.288Z,100.00
2023-01-18T20:41:38.933Z,100.00
2023-01-18T20:44:24.759Z,100.00
2023-01-18T20:47:10.314Z,100.00
2023-01-18T20:49:56.067Z,100.00
2023-01-18T20:52:41.953Z,100.00
2023-01-18T20:55:27.237Z,100.00
2023-01-18T20:58:12.606Z,100.00
2023-01-18T21:01:03.915Z,100.00
2023-01-18T21:03:54.300Z,100.00
2023-01-18T21:06:44.795Z,100.00
2023-01-18T21:09:30.396Z,100.00
2023-01-18T21:12:15.860Z,100.00
2023-01-18T21:15:01.310Z,100.00
2023-01-18T21:17:46.960Z,100.00
2023-01-18T21:20:32.617Z,100.00
2023-01-18T21:23:18.336Z,100.00
2023-01-18T21:26:03.857Z,100.00
2023-01-18T21:28:49.582Z,100.00
2023-01-18T21:31:35.208Z,100.00
2023-01-18T21:34:20.804Z,100.00
2023-01-18T21:37:06.138Z,100.00
2023-01-18T21:39:51.713Z,100.00
2023-01-18T21:42:55.393Z,100.00
2023-01-18T21:45:56.422Z,100.00
2023-01-18T21:48:41.918Z,100.00
2023-01-18T21:51:45.765Z,100.00
2023-01-18T21:54:31.228Z,100.00
2023-01-18T21:57:16.555Z,100.00
2023-01-18T22:00:02.985Z,100.00
2023-01-18T22:02:48.552Z,100.00
2023-01-18T22:05:34.394Z,100.00
2023-01-18T22:08:19.839Z,100.00
2023-01-18T22:11:05.355Z,100.00
2023-01-18T22:13:50.614Z,100.00
2023-01-18T22:16:36.534Z,100.00
2023-01-18T22:19:22.185Z,100.00
2023-01-18T22:22:07.672Z,100.00
2023-01-18T22:24:53.501Z,100.00
2023-01-18T22:27:38.993Z,100.00
2023-01-18T22:30:24.912Z,100.00
2023-01-18T22:33:10.278Z,100.00
2023-01-18T22:35:59.355Z,100.00
2023-01-18T22:38:45.499Z,100.00
2023-01-18T22:41:30.950Z,100.00
2023-01-18T22:44:16.987Z,100.00
2023-01-18T22:47:02.363Z,100.00
2023-01-18T22:49:47.738Z,100.00
2023-01-18T22:52:33.336Z,100.00
2023-01-18T22:55:18.715Z,100.00
2023-01-18T22:58:04.208Z,100.00
2023-01-18T23:00:50.095Z,100.00
2023-01-18T23:03:35.800Z,100.00
2023-01-18T23:06:21.860Z,100.00
2023-01-18T23:09:09.201Z,100.00
2023-01-18T23:11:54.547Z,100.00
2023-01-18T23:14:58.608Z,100.00
2023-01-18T23:17:44.948Z,100.00
2023-01-18T23:20:30.322Z,100.00
2023-01-18T23:23:15.720Z,100.00
2023-01-18T23:26:01.278Z,100.00
2023-01-18T23:28:47.075Z,100.00
2023-01-18T23:31:32.877Z,100.00
2023-01-18T23:34:18.481Z,100.00
2023-01-18T23:37:03.865Z,100.00
2023-01-18T23:40:07.868Z,100.00
2023-01-18T23:43:12.333Z,100.00
2023-01-18T23:46:16.845Z,100.00
2023-01-18T23:49:20.601Z,100.00
2023-01-18T23:52:24.964Z,100.00
2023-01-18T23:55:10.453Z,100.00
2023-01-18T23:57:55.923Z,100.00
